Time;durP1;ratioP1;P1;durP2;ratioP2;P2;SDS_P1;SDS_P2;PMS_P1;PMS_P2;Temp;Humidity;BMP_temperature;BMP_pressure;BME280_temperature;BME280_humidity;BME280_pressure;Samples;Min_cycle;Max_cycle;Signal;HPM_P1;HPM_P2
2022/07/14 00:00:10;;;;;;;2.15;1.35;;;24.90;98.70;;;;;;5025846;28;20132;-78
2022/07/14 00:02:37;;;;;;;0.60;0.32;;;24.80;98.60;;;;;;5024248;28;20128;-79
2022/07/14 00:05:04;;;;;;;0.82;0.30;;;24.80;99.10;;;;;;5022613;28;20192;-78
2022/07/14 00:07:31;;;;;;;2.33;0.60;;;24.90;98.30;;;;;;5019763;28;20108;-79
2022/07/14 00:09:58;;;;;;;2.28;0.52;;;24.90;98.50;;;;;;5024323;28;20583;-78
2022/07/14 00:12:24;;;;;;;3.42;0.60;;;24.90;99.60;;;;;;5025919;28;20136;-78
2022/07/14 00:14:51;;;;;;;3.30;0.93;;;24.90;99.90;;;;;;5025037;28;20124;-79
2022/07/14 00:17:18;;;;;;;1.45;0.50;;;24.90;99.90;;;;;;5025391;28;20132;-78
2022/07/14 00:19:44;;;;;;;1.85;0.50;;;24.90;99.90;;;;;;5026332;28;20052;-78
2022/07/14 00:22:12;;;;;;;3.30;0.50;;;24.90;99.90;;;;;;5024577;28;20133;-78
2022/07/14 00:24:39;;;;;;;1.02;0.50;;;24.90;99.90;;;;;;5023836;28;20137;-79
2022/07/14 00:27:06;;;;;;;4.57;0.70;;;24.90;99.90;;;;;;5024297;28;20060;-79
2022/07/14 00:29:35;;;;;;;2.50;0.70;;;24.90;99.90;;;;;;5024825;28;20053;-78
2022/07/14 00:32:06;;;;;;;4.97;0.73;;;24.90;99.90;;;;;;5015949;28;20086;-78
2022/07/14 00:34:33;;;;;;;4.68;0.93;;;24.80;99.90;;;;;;5023271;28;20503;-79
2022/07/14 00:37:00;;;;;;;3.35;0.85;;;24.60;99.90;;;;;;5025476;28;20077;-79
2022/07/14 00:39:26;;;;;;;1.02;0.70;;;24.70;99.90;;;;;;5029721;28;20050;-77
2022/07/14 00:41:53;;;;;;;1.08;0.60;;;24.70;99.90;;;;;;5030997;28;20065;-80
2022/07/14 00:44:20;;;;;;;2.05;1.00;;;24.70;99.90;;;;;;5032939;28;20590;-79
2022/07/14 00:46:46;;;;;;;2.28;0.80;;;24.70;99.90;;;;;;5032956;28;20077;-78
2022/07/14 00:49:33;;;;;;;2.40;0.50;;;24.70;99.90;;;;;;5030216;28;20081;-79
2022/07/14 00:52:00;;;;;;;1.42;0.75;;;24.60;99.90;;;;;;5026928;28;20060;-78
2022/07/14 00:54:29;;;;;;;4.28;0.57;;;24.60;99.90;;;;;;5032306;28;20511;-79
2022/07/14 00:56:55;;;;;;;2.38;0.60;;;24.60;99.90;;;;;;5033116;28;20430;-80
2022/07/14 00:59:22;;;;;;;3.33;0.80;;;24.50;99.90;;;;;;5031136;28;20056;-79
2022/07/14 01:01:49;;;;;;;0.90;0.55;;;24.40;99.90;;;;;;5030451;28;20077;-78
2022/07/14 01:04:16;;;;;;;2.13;0.65;;;24.40;99.90;;;;;;5028063;28;20151;-79
2022/07/14 01:06:43;;;;;;;1.00;0.50;;;24.40;99.90;;;;;;5032235;28;20054;-79
2022/07/14 01:09:10;;;;;;;6.25;0.70;;;24.30;99.90;;;;;;5033338;28;20077;-79
2022/07/14 01:11:36;;;;;;;3.33;0.70;;;24.30;99.90;;;;;;5030808;28;20109;-79
2022/07/14 01:14:03;;;;;;;4.35;0.90;;;24.20;99.90;;;;;;5030215;28;20054;-80
2022/07/14 01:16:30;;;;;;;2.13;0.63;;;24.20;99.90;;;;;;5026311;28;20523;-78
2022/07/14 01:18:57;;;;;;;1.30;0.60;;;24.20;99.90;;;;;;5027161;28;20041;-78
2022/07/14 01:21:25;;;;;;;5.68;0.70;;;24.20;99.90;;;;;;5027492;28;20052;-78
2022/07/14 01:23:52;;;;;;;2.35;0.60;;;24.10;99.90;;;;;;5025042;28;20041;-79
2022/07/14 01:26:18;;;;;;;0.93;0.60;;;24.00;99.90;;;;;;5024933;28;20054;-79
2022/07/14 01:28:45;;;;;;;1.42;0.60;;;24.00;99.90;;;;;;5031467;28;20088;-79
2022/07/14 01:31:12;;;;;;;2.67;0.60;;;24.00;99.90;;;;;;5031004;28;20499;-79
2022/07/14 01:33:38;;;;;;;1.55;0.57;;;24.00;99.90;;;;;;5029547;28;20050;-79
2022/07/14 01:36:06;;;;;;;3.38;0.82;;;24.00;99.90;;;;;;5031909;28;20104;-79
2022/07/14 01:38:32;;;;;;;1.33;0.80;;;24.00;99.90;;;;;;5030091;28;20052;-77
2022/07/14 01:40:59;;;;;;;0.75;0.60;;;24.00;99.90;;;;;;5028693;28;20073;-79
2022/07/14 01:43:26;;;;;;;1.10;0.70;;;24.00;99.90;;;;;;5031533;28;20041;-79
2022/07/14 01:45:52;;;;;;;3.22;0.73;;;23.90;99.90;;;;;;5038698;28;20427;-79
2022/07/14 01:48:19;;;;;;;3.55;0.70;;;24.00;99.90;;;;;;5028752;28;20054;-79
2022/07/14 01:50:46;;;;;;;1.40;0.70;;;23.90;99.90;;;;;;5029936;28;20049;-78
2022/07/14 01:53:14;;;;;;;4.82;0.70;;;23.90;99.90;;;;;;5031672;28;20128;-80
2022/07/14 01:55:40;;;;;;;1.42;0.80;;;23.90;99.90;;;;;;5037993;28;20117;-79
2022/07/14 01:58:07;;;;;;;0.95;0.50;;;23.80;99.90;;;;;;5028297;28;20500;-79
2022/07/14 02:00:34;;;;;;;1.33;0.60;;;23.80;99.90;;;;;;5031434;28;20053;-80
2022/07/14 02:03:00;;;;;;;5.30;0.88;;;23.70;99.90;;;;;;5029992;28;20571;-78
2022/07/14 02:05:27;;;;;;;3.58;0.70;;;23.70;99.90;;;;;;5028338;28;20124;-79
2022/07/14 02:07:54;;;;;;;2.80;0.57;;;23.70;99.90;;;;;;5030033;28;20092;-79
2022/07/14 02:13:06;;;;;;;6.97;1.20;;;23.70;99.90;;;;;;5029525;28;20052;-79
2022/07/14 02:15:33;;;;;;;2.97;0.60;;;23.60;99.90;;;;;;5028366;28;20057;-79
2022/07/14 02:17:59;;;;;;;0.80;0.70;;;23.60;99.90;;;;;;5031839;28;20053;-79
2022/07/14 02:20:26;;;;;;;2.53;0.68;;;23.60;99.90;;;;;;5028103;28;20470;-79
2022/07/14 02:22:53;;;;;;;2.15;0.50;;;23.50;99.90;;;;;;5029804;28;20080;-79
2022/07/14 02:25:20;;;;;;;1.48;0.80;;;23.60;99.90;;;;;;5030281;28;20041;-79
2022/07/14 02:27:47;;;;;;;4.32;0.77;;;23.40;99.90;;;;;;5023989;28;20050;-80
2022/07/14 02:30:14;;;;;;;1.88;0.50;;;23.40;99.90;;;;;;5028781;28;20065;-80
2022/07/14 02:32:41;;;;;;;1.17;0.63;;;23.40;99.90;;;;;;5031056;28;20052;-80
2022/07/14 02:35:08;;;;;;;1.45;0.70;;;23.30;99.90;;;;;;5028575;28;20046;-79
2022/07/14 02:37:34;;;;;;;2.40;0.60;;;23.30;99.90;;;;;;5028291;28;20412;-79
2022/07/14 02:40:01;;;;;;;1.42;0.70;;;23.20;99.90;;;;;;5022906;28;20057;-79
2022/07/14 02:42:28;;;;;;;1.00;0.70;;;23.20;99.90;;;;;;5029101;28;20128;-78
2022/07/14 02:44:54;;;;;;;1.60;0.63;;;23.20;99.90;;;;;;5030269;28;20595;-78
2022/07/14 02:47:21;;;;;;;1.42;0.70;;;23.10;99.90;;;;;;5029783;28;20050;-80
2022/07/14 02:49:48;;;;;;;1.15;0.60;;;23.10;99.90;;;;;;5028876;28;20113;-80
2022/07/14 02:52:15;;;;;;;1.65;0.90;;;23.10;99.90;;;;;;5027252;28;20053;-79
2022/07/14 02:54:42;;;;;;;0.68;0.63;;;23.00;99.90;;;;;;5028179;28;20053;-79
2022/07/14 02:57:09;;;;;;;0.85;0.52;;;23.10;99.90;;;;;;5026335;28;20046;-80
2022/07/14 02:59:35;;;;;;;0.85;0.75;;;23.10;99.90;;;;;;5029265;28;20054;-79
2022/07/14 03:02:02;;;;;;;2.55;0.50;;;23.10;99.90;;;;;;5029741;28;20448;-79
2022/07/14 03:04:29;;;;;;;2.83;0.80;;;23.10;99.90;;;;;;5027752;28;20050;-79
2022/07/14 03:06:56;;;;;;;2.92;0.60;;;23.10;99.90;;;;;;5028485;28;20057;-80
2022/07/14 03:09:22;;;;;;;0.55;0.55;;;23.10;99.90;;;;;;5029583;28;20515;-80
2022/07/14 03:11:49;;;;;;;1.58;0.60;;;23.10;99.90;;;;;;5027202;28;20050;-79
2022/07/14 03:14:16;;;;;;;1.63;0.93;;;23.10;99.90;;;;;;5028271;28;20057;-79
2022/07/14 03:16:43;;;;;;;10.00;0.60;;;23.00;99.90;;;;;;5029509;28;20049;-79
2022/07/14 03:19:09;;;;;;;1.75;0.57;;;23.00;99.90;;;;;;5027582;28;20048;-79
2022/07/14 03:21:36;;;;;;;0.68;0.60;;;23.00;99.90;;;;;;5027959;28;20081;-80
2022/07/14 03:24:03;;;;;;;1.42;0.40;;;22.90;99.90;;;;;;5023502;28;20045;-79
2022/07/14 03:26:30;;;;;;;1.05;0.80;;;22.90;99.90;;;;;;5028915;28;20451;-80
2022/07/14 03:28:57;;;;;;;1.65;0.57;;;22.90;99.90;;;;;;5034693;28;20053;-78
2022/07/14 03:31:24;;;;;;;1.95;0.60;;;22.90;99.90;;;;;;5032716;28;20634;-79
2022/07/14 03:33:51;;;;;;;1.75;0.60;;;22.90;99.90;;;;;;5027583;28;20065;-79
2022/07/14 03:36:20;;;;;;;0.80;0.60;;;22.80;99.90;;;;;;5023215;28;20088;-80
2022/07/14 03:38:47;;;;;;;1.35;0.50;;;22.80;99.90;;;;;;5025634;28;20096;-79
2022/07/14 03:41:14;;;;;;;1.52;0.55;;;22.80;99.90;;;;;;5035263;28;20049;-80
2022/07/14 03:43:41;;;;;;;2.25;0.77;;;22.70;99.90;;;;;;5027556;28;20075;-79
2022/07/14 03:46:08;;;;;;;1.33;0.70;;;22.70;99.90;;;;;;5027143;28;20129;-79
2022/07/14 03:48:35;;;;;;;1.52;1.08;;;22.60;99.90;;;;;;5028853;28;20050;-80
2022/07/14 03:51:02;;;;;;;1.00;0.70;;;22.60;99.90;;;;;;5028541;28;20137;-78
2022/07/14 03:53:30;;;;;;;1.73;0.60;;;22.60;99.90;;;;;;5027445;28;20140;-80
2022/07/14 03:55:57;;;;;;;0.93;0.50;;;22.60;99.90;;;;;;5029180;28;20458;-79
2022/07/14 03:58:24;;;;;;;0.52;0.43;;;22.50;99.90;;;;;;5029956;28;20076;-80
2022/07/14 04:00:51;;;;;;;1.02;0.60;;;22.50;99.90;;;;;;5028285;28;20115;-78
2022/07/14 04:03:18;;;;;;;0.73;0.50;;;22.50;99.90;;;;;;5030042;28;20081;-79
2022/07/14 04:05:48;;;;;;;1.85;0.50;;;22.50;99.90;;;;;;5032915;28;20517;-80
2022/07/14 04:08:16;;;;;;;4.10;0.60;;;22.50;99.90;;;;;;5027957;28;20062;-78
2022/07/14 04:10:42;;;;;;;2.78;0.60;;;22.40;99.90;;;;;;5032870;28;20045;-80
2022/07/14 04:13:09;;;;;;;1.25;0.60;;;22.40;99.90;;;;;;5030737;28;20057;-80
2022/07/14 04:15:39;;;;;;;0.98;0.50;;;22.40;99.90;;;;;;5034663;28;20457;-79
2022/07/14 04:18:06;;;;;;;2.93;0.80;;;22.40;99.90;;;;;;5027315;28;20563;-79
2022/07/14 04:20:33;;;;;;;3.58;1.50;;;22.40;99.90;;;;;;5030795;28;20308;-79
2022/07/14 04:22:59;;;;;;;0.98;0.82;;;22.40;99.90;;;;;;5029892;28;20050;-79
2022/07/14 04:25:26;;;;;;;2.70;0.80;;;22.40;99.90;;;;;;5032022;28;20057;-79
2022/07/14 04:27:53;;;;;;;0.80;0.60;;;22.40;99.90;;;;;;5032183;28;20050;-80
2022/07/14 04:30:20;;;;;;;0.60;0.60;;;22.40;99.90;;;;;;5030319;28;20104;-80
2022/07/14 04:32:47;;;;;;;1.17;0.73;;;22.40;99.90;;;;;;5029825;28;20092;-80
2022/07/14 04:35:14;;;;;;;3.90;2.00;;;22.40;99.90;;;;;;5033389;28;20083;-79
2022/07/14 04:37:41;;;;;;;0.73;0.52;;;22.30;99.90;;;;;;5030304;28;20415;-76
2022/07/14 04:40:08;;;;;;;1.10;0.70;;;22.30;99.90;;;;;;5029835;28;20050;-79
2022/07/14 04:42:35;;;;;;;1.02;0.60;;;22.40;99.90;;;;;;5026706;28;20084;-79
2022/07/14 04:45:02;;;;;;;1.25;0.60;;;22.40;99.90;;;;;;5031207;28;20085;-80
2022/07/14 04:47:28;;;;;;;2.55;0.98;;;22.30;99.90;;;;;;5033535;28;20077;-80
2022/07/14 04:52:48;;;;;;;1.38;0.57;;;22.40;99.90;;;;;;5028127;28;20046;-78
2022/07/14 04:55:15;;;;;;;2.58;0.70;;;22.50;99.90;;;;;;5023243;28;20077;-79
2022/07/14 04:57:42;;;;;;;2.03;0.57;;;22.50;99.90;;;;;;5026239;28;20084;-79
2022/07/14 05:00:11;;;;;;;1.15;0.60;;;22.50;99.90;;;;;;5025130;28;20046;-78
2022/07/14 05:02:37;;;;;;;4.43;0.63;;;22.50;99.90;;;;;;5023742;28;20144;-79
2022/07/14 05:05:05;;;;;;;1.45;0.88;;;22.50;99.90;;;;;;5023399;28;20046;-78
2022/07/14 05:07:32;;;;;;;2.45;0.80;;;22.60;99.90;;;;;;5019240;28;20084;-79
2022/07/14 05:09:59;;;;;;;2.33;0.85;;;22.60;99.90;;;;;;5023509;28;20149;-80
2022/07/14 05:12:26;;;;;;;3.13;0.70;;;22.60;99.90;;;;;;5025069;28;20080;-78
2022/07/14 05:14:53;;;;;;;1.48;0.77;;;22.60;99.90;;;;;;5022938;28;20073;-78
2022/07/14 05:17:20;;;;;;;3.97;0.90;;;22.70;99.90;;;;;;5022841;28;20078;-79
2022/07/14 05:19:51;;;;;;;2.55;0.70;;;22.80;99.90;;;;;;5019532;28;20054;-79
2022/07/14 05:22:18;;;;;;;1.95;0.90;;;22.90;99.90;;;;;;5022590;28;20053;-78
2022/07/14 05:24:45;;;;;;;1.35;0.70;;;23.00;99.90;;;;;;5031694;28;20077;-78
2022/07/14 05:27:12;;;;;;;2.88;0.90;;;23.00;99.90;;;;;;5030453;28;20494;-79
2022/07/14 05:29:39;;;;;;;4.57;0.90;;;23.10;99.90;;;;;;5025175;28;20111;-78
2022/07/14 05:32:06;;;;;;;4.25;0.80;;;23.20;99.90;;;;;;5023131;28;20085;-78
2022/07/14 05:34:32;;;;;;;2.30;0.80;;;23.30;99.90;;;;;;5022955;28;20052;-79
2022/07/14 05:37:01;;;;;;;2.60;0.93;;;23.30;99.90;;;;;;5022500;28;20078;-76
2022/07/14 05:39:28;;;;;;;1.35;0.80;;;23.40;99.90;;;;;;5023948;28;20045;-78
2022/07/14 05:41:54;;;;;;;1.88;0.80;;;23.50;99.90;;;;;;5025697;28;20077;-79
2022/07/14 05:44:21;;;;;;;3.60;0.70;;;23.60;99.90;;;;;;5024589;28;20042;-79
2022/07/14 05:46:48;;;;;;;5.80;1.40;;;23.70;99.90;;;;;;5024402;28;20077;-78
2022/07/14 05:49:15;;;;;;;7.28;0.85;;;23.70;99.90;;;;;;5021363;28;20081;-79
2022/07/14 05:51:49;;;;;;;3.67;1.00;;;23.70;99.90;;;;;;5024778;28;20115;-78
2022/07/14 05:54:16;;;;;;;4.65;1.20;;;23.70;99.90;;;;;;5023033;28;20050;-78
2022/07/14 05:56:43;;;;;;;3.20;1.00;;;23.80;99.90;;;;;;5025606;28;20042;-79
2022/07/14 05:59:09;;;;;;;4.13;0.80;;;23.80;99.90;;;;;;5027408;28;20049;-79
2022/07/14 06:01:56;;;;;;;1.85;0.52;;;23.80;99.90;;;;;;5030909;28;20049;-79
2022/07/14 06:04:23;;;;;;;4.93;0.93;;;23.90;99.90;;;;;;5029961;28;20053;-79
2022/07/14 06:06:51;;;;;;;2.85;1.02;;;24.00;99.90;;;;;;5029238;28;20081;-79
2022/07/14 06:09:17;;;;;;;2.72;0.80;;;24.10;99.90;;;;;;5039705;28;20073;-79
2022/07/14 06:11:45;;;;;;;1.25;0.80;;;24.20;99.90;;;;;;5031019;28;20073;-79
2022/07/14 06:14:13;;;;;;;8.18;1.08;;;24.30;99.90;;;;;;5033771;28;20058;-78
2022/07/14 06:16:41;;;;;;;3.25;1.00;;;24.40;99.90;;;;;;5031696;28;20077;-79
2022/07/14 06:19:08;;;;;;;4.38;1.08;;;24.40;99.90;;;;;;5029911;28;20116;-79
2022/07/14 06:21:42;;;;;;;5.75;1.10;;;24.50;99.90;;;;;;5029669;28;20046;-78
2022/07/14 06:24:08;;;;;;;5.28;1.00;;;24.60;99.90;;;;;;5029378;28;20050;-78
2022/07/14 06:26:35;;;;;;;4.00;1.20;;;24.70;99.90;;;;;;5030731;28;20079;-80
2022/07/14 06:29:02;;;;;;;6.53;1.02;;;24.70;99.90;;;;;;5035153;28;20053;-80
2022/07/14 06:31:33;;;;;;;4.68;1.13;;;24.70;99.90;;;;;;5033682;28;20046;-78
2022/07/14 06:34:01;;;;;;;7.13;0.80;;;24.80;99.90;;;;;;5034804;28;20077;-78
2022/07/14 06:36:28;;;;;;;6.57;1.00;;;24.80;99.90;;;;;;5036560;28;20045;-79
2022/07/14 06:38:55;;;;;;;7.18;0.93;;;24.80;99.90;;;;;;5034679;28;20053;-78
2022/07/14 06:41:22;;;;;;;3.88;0.95;;;24.80;99.90;;;;;;5034502;28;20042;-77
2022/07/14 06:43:48;;;;;;;7.82;1.10;;;24.90;99.90;;;;;;5035606;28;20073;-79
2022/07/14 06:46:16;;;;;;;3.63;0.80;;;24.90;99.90;;;;;;5044306;28;20080;-79
2022/07/14 06:48:43;;;;;;;5.68;0.80;;;25.00;99.90;;;;;;5032828;28;20088;-79
2022/07/14 06:51:10;;;;;;;5.30;1.30;;;25.00;99.90;;;;;;5035648;28;20053;-77
2022/07/14 06:53:37;;;;;;;3.75;0.90;;;25.10;99.90;;;;;;5035759;28;20115;-79
2022/07/14 06:56:04;;;;;;;3.22;1.08;;;25.10;99.90;;;;;;5031211;28;20078;-78
2022/07/14 06:58:32;;;;;;;4.38;0.98;;;25.10;99.90;;;;;;5021195;28;20146;-78
2022/07/14 07:00:59;;;;;;;4.10;0.95;;;25.10;99.90;;;;;;5023412;28;20045;-78
2022/07/14 07:03:26;;;;;;;2.90;1.15;;;25.20;99.90;;;;;;5022239;28;20558;-78
2022/07/14 07:08:38;;;;;;;4.43;0.98;;;25.30;99.90;;;;;;5010260;28;20064;-76
2022/07/14 07:11:05;;;;;;;2.67;0.98;;;25.30;99.90;;;;;;5017606;28;20565;-78
2022/07/14 07:13:32;;;;;;;4.38;1.00;;;25.40;99.90;;;;;;5017692;28;20050;-79
2022/07/14 07:16:09;;;;;;;2.15;0.98;;;25.50;99.90;;;;;;5015152;28;20546;-79
2022/07/14 07:18:36;;;;;;;4.47;1.08;;;25.50;99.90;;;;;;5014428;28;20072;-79
2022/07/14 07:21:04;;;;;;;7.35;1.00;;;25.60;99.90;;;;;;5020750;28;20046;-79
2022/07/14 07:23:31;;;;;;;3.22;0.77;;;25.80;99.90;;;;;;5021080;28;20174;-77
2022/07/14 07:25:58;;;;;;;3.50;0.80;;;25.80;99.90;;;;;;5003812;28;20053;-80
2022/07/14 07:28:25;;;;;;;4.32;1.00;;;25.80;99.90;;;;;;5001650;28;20474;-79
2022/07/14 07:30:52;;;;;;;5.95;1.23;;;25.90;99.90;;;;;;5020151;28;20088;-79
2022/07/14 07:33:18;;;;;;;9.02;1.20;;;26.00;99.90;;;;;;5023509;28;20068;-78
2022/07/14 07:35:46;;;;;;;0.85;0.73;;;26.00;99.90;;;;;;5032368;28;20053;-78
2022/07/14 07:38:13;;;;;;;4.13;0.80;;;26.00;99.90;;;;;;5029539;28;20073;-79
2022/07/14 07:40:39;;;;;;;5.05;0.73;;;26.10;99.90;;;;;;5036142;28;20056;-81
2022/07/14 07:43:06;;;;;;;6.60;1.08;;;26.20;99.90;;;;;;5041047;28;20100;-83
2022/07/14 07:45:33;;;;;;;5.43;0.70;;;26.30;99.90;;;;;;5032463;28;20053;-80
2022/07/14 07:48:03;;;;;;;2.70;0.70;;;26.40;99.90;;;;;;5030360;28;20096;-81
2022/07/14 07:50:31;;;;;;;6.13;1.20;;;26.40;99.90;;;;;;5019175;28;20045;-79
2022/07/14 07:52:58;;;;;;;1.98;0.80;;;26.60;99.90;;;;;;5022761;28;20053;-80
2022/07/14 07:55:24;;;;;;;6.30;0.75;;;26.70;99.90;;;;;;5031550;28;20076;-80
2022/07/14 07:57:53;;;;;;;3.30;0.60;;;26.70;99.90;;;;;;5031510;28;20128;-80
2022/07/14 08:00:21;;;;;;;2.08;0.60;;;26.70;99.90;;;;;;5039486;28;20049;-80
2022/07/14 08:02:55;;;;;;;2.90;0.63;;;26.70;99.90;;;;;;5040337;28;20049;-80
2022/07/14 08:05:24;;;;;;;2.03;0.57;;;26.80;99.90;;;;;;5041537;28;20038;-81
2022/07/14 08:08:11;;;;;;;1.23;0.52;;;26.80;99.90;;;;;;5037504;28;20117;-81
2022/07/14 08:10:39;;;;;;;2.10;0.30;;;26.90;99.90;;;;;;5038177;28;20557;-79
2022/07/14 08:13:06;;;;;;;2.50;0.70;;;26.90;99.90;;;;;;5041081;28;20061;-80
2022/07/14 08:15:33;;;;;;;0.47;0.47;;;26.90;99.90;;;;;;5043569;28;20049;-80
2022/07/14 08:18:00;;;;;;;1.17;0.70;;;27.00;99.90;;;;;;5035970;28;20030;-80
2022/07/14 08:20:27;;;;;;;1.80;0.68;;;27.00;99.90;;;;;;5042525;28;20516;-82
2022/07/14 08:22:54;;;;;;;0.60;0.50;;;27.00;99.90;;;;;;5036550;28;20049;-79
2022/07/14 08:25:22;;;;;;;2.95;0.55;;;27.10;99.90;;;;;;5030812;28;20330;-81
2022/07/14 08:27:49;;;;;;;2.47;0.60;;;27.10;99.90;;;;;;5031540;28;20049;-81
2022/07/14 08:30:15;;;;;;;1.85;0.60;;;27.10;99.90;;;;;;5032168;28;20050;-82
2022/07/14 08:32:46;;;;;;;2.63;0.77;;;27.10;99.90;;;;;;5029696;28;20045;-81
2022/07/14 08:35:15;;;;;;;2.55;0.75;;;27.20;99.90;;;;;;5031285;28;20042;-81
2022/07/14 08:37:43;;;;;;;2.85;0.60;;;27.30;99.90;;;;;;5029623;28;20103;-81
2022/07/14 08:40:13;;;;;;;1.20;0.40;;;27.30;99.90;;;;;;5030494;28;20106;-79
2022/07/14 08:42:45;;;;;;;5.13;0.80;;;27.30;99.90;;;;;;5031670;28;20081;-81
2022/07/14 08:45:14;;;;;;;2.13;0.50;;;27.30;99.90;;;;;;5026514;28;20082;-80
2022/07/14 08:47:43;;;;;;;4.70;0.60;;;27.40;99.90;;;;;;5037140;28;20052;-81
2022/07/14 08:50:12;;;;;;;1.20;0.75;;;27.40;99.90;;;;;;5030128;28;20331;-81
2022/07/14 08:52:41;;;;;;;5.82;0.80;;;27.40;99.90;;;;;;5029094;28;20050;-82
2022/07/14 08:55:10;;;;;;;1.75;0.50;;;27.40;99.90;;;;;;5023686;28;20049;-79
2022/07/14 08:57:39;;;;;;;1.08;0.50;;;27.40;99.90;;;;;;5028362;28;20649;-82
2022/07/14 09:00:10;;;;;;;5.60;0.70;;;27.40;99.90;;;;;;5025422;28;20423;-81
2022/07/14 09:02:39;;;;;;;1.10;0.60;;;27.40;99.90;;;;;;5031472;28;20045;-81
2022/07/14 09:05:26;;;;;;;1.60;0.73;;;27.50;99.90;;;;;;5026650;28;20045;-82
2022/07/14 09:07:56;;;;;;;1.52;0.73;;;27.50;99.90;;;;;;5029843;28;20084;-81
2022/07/14 09:10:28;;;;;;;3.60;0.57;;;27.50;99.90;;;;;;5032687;28;20046;-82
2022/07/14 09:13:24;;;;;;;1.42;1.13;;;27.60;99.90;;;;;;5022904;28;20049;-81
2022/07/14 09:16:16;;;;;;;8.68;0.90;;;27.70;99.90;;;;;;5013446;28;20073;-82
2022/07/14 09:18:43;;;;;;;2.85;0.70;;;27.80;99.90;;;;;;5045507;28;20103;-79
2022/07/14 09:21:23;;;;;;;4.68;0.73;;;27.80;99.90;;;;;;5028016;28;20050;-81
2022/07/14 09:23:54;;;;;;;;;;;27.80;99.90;;;;;;5036958;28;20060;-82
2022/07/14 09:26:21;;;;;;;0.75;0.40;;;27.80;99.90;;;;;;5033717;28;19921;-81
2022/07/14 09:28:50;;;;;;;0.93;0.75;;;27.80;99.90;;;;;;5035990;28;20140;-81
2022/07/14 09:31:28;;;;;;;2.75;0.80;;;27.90;99.90;;;;;;5031403;28;20049;-82
2022/07/14 09:33:57;;;;;;;1.13;0.68;;;28.00;99.90;;;;;;5036320;28;20073;-82
2022/07/14 09:36:35;;;;;;;5.25;0.75;;;28.00;99.90;;;;;;5038091;28;20073;-82
2022/07/14 09:39:06;;;;;;;1.48;0.93;;;28.00;99.90;;;;;;5032300;28;20061;-82
2022/07/14 09:41:54;;;;;;;2.28;0.68;;;28.10;99.90;;;;;;5046167;28;20068;-82
2022/07/14 09:44:22;;;;;;;2.00;0.80;;;28.10;99.90;;;;;;5035460;28;20042;-83
2022/07/14 09:46:57;;;;;;;1.40;0.80;;;28.10;99.90;;;;;;5033644;28;20060;-82
2022/07/14 09:49:27;;;;;;;0.70;0.70;;;28.10;99.90;;;;;;5032300;28;20046;-83
2022/07/14 09:51:54;;;;;;;1.50;0.75;;;28.20;99.90;;;;;;5036250;28;20046;-81
2022/07/14 09:54:51;;;;;;;2.72;0.57;;;28.20;99.90;;;;;;5039595;28;20045;-81
2022/07/14 09:57:24;;;;;;;2.15;0.60;;;28.40;99.90;;;;;;5033890;28;20060;-82
2022/07/14 09:59:57;;;;;;;2.83;0.93;;;28.40;98.30;;;;;;5036563;28;20045;-82
2022/07/14 10:02:27;;;;;;;1.15;0.63;;;28.50;99.90;;;;;;5030327;28;20080;-84
2022/07/14 10:04:58;;;;;;;3.30;1.25;;;28.50;99.90;;;;;;5036840;28;20060;-82
2022/07/14 10:07:25;;;;;;;0.95;0.57;;;28.50;98.60;;;;;;5021996;28;20054;-82
2022/07/14 10:09:58;;;;;;;2.33;1.00;;;28.50;99.90;;;;;;5036297;28;20156;-83
2022/07/14 10:12:26;;;;;;;2.00;0.50;;;28.60;99.30;;;;;;5026859;28;20064;-83
2022/07/14 10:14:53;;;;;;;5.22;0.77;;;28.60;98.70;;;;;;5028435;28;20042;-82
2022/07/14 10:17:22;;;;;;;1.95;0.50;;;28.70;99.90;;;;;;5029884;28;20061;-83
2022/07/14 10:19:49;;;;;;;4.82;0.85;;;28.80;99.80;;;;;;5029097;28;20046;-82
2022/07/14 10:22:18;;;;;;;0.68;0.57;;;28.80;99.40;;;;;;5032365;28;20061;-83
2022/07/14 10:24:46;;;;;;;3.30;0.35;;;28.90;99.90;;;;;;5053190;28;20059;-84
2022/07/14 10:27:13;;;;;;;1.48;1.15;;;28.90;98.30;;;;;;5037462;28;20053;-82
2022/07/14 10:29:40;;;;;;;1.33;0.70;;;28.90;99.70;;;;;;5027472;28;20050;-81
2022/07/14 10:32:33;;;;;;;1.10;0.60;;;28.90;98.40;;;;;;5025930;28;20049;-82
2022/07/14 10:35:20;;;;;;;1.20;0.68;;;29.00;99.90;;;;;;5026408;28;20045;-83
2022/07/14 10:38:06;;;;;;;2.25;0.80;;;29.00;98.40;;;;;;5021626;28;20080;-78
2022/07/14 10:41:01;;;;;;;1.98;1.00;;;29.00;99.00;;;;;;5033381;28;20045;-81
2022/07/14 10:43:58;;;;;;;1.35;0.85;;;29.10;99.50;;;;;;5039550;28;20045;-81
2022/07/14 10:46:39;;;;;;;2.95;0.88;;;29.10;99.90;;;;;;5041504;28;20088;-81
2022/07/14 10:49:08;;;;;;;1.70;0.70;;;29.10;99.90;;;;;;5033987;28;20072;-82
2022/07/14 10:51:49;;;;;;;2.95;0.60;;;29.10;99.90;;;;;;5028069;28;20046;-81
2022/07/14 10:54:30;;;;;;;2.55;0.82;;;29.20;99.90;;;;;;5027457;28;20444;-83
2022/07/14 10:57:14;;;;;;;3.17;1.00;;;29.20;99.90;;;;;;5038294;28;20049;-82
2022/07/14 10:59:46;;;;;;;4.82;0.70;;;29.20;99.00;;;;;;5037399;28;20061;-83
2022/07/14 11:02:15;;;;;;;4.00;0.80;;;29.30;97.60;;;;;;5034969;28;20199;-82
2022/07/14 11:05:01;;;;;;;1.77;0.60;;;29.30;99.90;;;;;;5039886;28;20047;-83
2022/07/14 11:07:52;;;;;;;2.10;0.52;;;29.40;99.00;;;;;;5034973;28;20108;-82
2022/07/14 11:10:19;;;;;;;4.18;0.82;;;29.40;94.30;;;;;;5029383;28;20114;-82
2022/07/14 11:13:15;;;;;;;1.27;0.68;;;29.50;95.30;;;;;;5040432;28;20073;-82
2022/07/14 11:15:55;;;;;;;3.25;0.68;;;29.50;95.70;;;;;;5041946;28;20428;-80
2022/07/14 11:18:25;;;;;;;1.50;0.70;;;29.50;97.00;;;;;;5037189;28;20052;-81
2022/07/14 11:21:03;;;;;;;3.80;0.60;;;29.50;97.00;;;;;;5038477;28;20132;-81
2022/07/14 11:23:54;;;;;;;5.53;0.70;;;29.60;99.90;;;;;;5039586;28;20241;-80
2022/07/14 11:26:40;;;;;;;5.07;0.90;;;29.70;97.10;;;;;;5039691;28;20096;-82
2022/07/14 11:29:14;;;;;;;2.75;0.60;;;29.70;97.60;;;;;;5036359;28;20148;-81
2022/07/14 11:31:48;;;;;;;2.42;0.88;;;29.70;97.50;;;;;;5041465;28;20407;-82
2022/07/14 11:37:08;;;;;;;3.40;0.80;;;29.80;97.90;;;;;;5044005;28;20050;-81
2022/07/14 11:39:55;;;;;;;0.45;0.45;;;29.80;98.10;;;;;;5044019;28;20129;-82
2022/07/14 11:42:22;;;;;;;0.98;0.60;;;29.80;97.50;;;;;;5043852;28;20053;-81
2022/07/14 11:44:51;;;;;;;4.50;0.73;;;29.90;97.10;;;;;;5040673;28;20057;-82
2022/07/14 11:47:21;;;;;;;3.20;1.00;;;30.00;99.40;;;;;;5040957;28;20117;-80
2022/07/14 11:50:00;;;;;;;2.20;0.60;;;30.00;97.80;;;;;;5041510;28;20107;-80
2022/07/14 11:52:38;;;;;;;2.35;0.77;;;30.10;95.40;;;;;;5039725;28;20495;-82
2022/07/14 11:55:08;;;;;;;2.40;0.73;;;30.10;94.70;;;;;;5041344;28;20046;-82
2022/07/14 11:57:35;;;;;;;0.75;0.55;;;30.10;96.90;;;;;;5054950;28;20041;-83
2022/07/14 12:00:08;;;;;;;4.15;0.80;;;30.20;95.50;;;;;;5041944;28;20069;-80
2022/07/14 12:02:50;;;;;;;1.88;0.77;;;30.30;96.40;;;;;;5040019;28;20045;-81
2022/07/14 12:05:17;;;;;;;0.90;0.80;;;30.30;95.20;;;;;;5038051;28;20103;-81
2022/07/14 12:07:49;;;;;;;0.80;0.73;;;30.30;95.60;;;;;;5040411;28;20057;-82
2022/07/14 12:10:42;;;;;;;2.88;0.85;;;30.30;95.10;;;;;;5043181;28;20045;-81
2022/07/14 12:13:09;;;;;;;2.33;0.63;;;30.40;97.30;;;;;;5043467;28;20140;-81
2022/07/14 12:15:36;;;;;;;1.48;0.77;;;30.40;95.90;;;;;;5038946;28;20045;-83
2022/07/14 12:18:05;;;;;;;2.22;0.75;;;30.40;95.10;;;;;;5043998;28;20050;-83
2022/07/14 12:20:45;;;;;;;0.50;0.50;;;30.40;95.40;;;;;;5031987;28;20049;-82
2022/07/14 12:23:13;;;;;;;0.82;0.73;;;30.50;96.20;;;;;;5018083;28;20064;-81
2022/07/14 12:25:43;;;;;;;2.63;0.90;;;30.50;96.50;;;;;;5038228;28;20053;-80
2022/07/14 12:28:14;;;;;;;0.90;0.85;;;30.70;95.30;;;;;;5034679;28;20411;-80
2022/07/14 12:30:59;;;;;;;5.88;0.93;;;30.80;95.70;;;;;;5031146;28;20053;-83
2022/07/14 12:33:37;;;;;;;1.63;0.80;;;30.90;97.00;;;;;;5036052;28;20052;-80
2022/07/14 12:36:13;;;;;;;1.48;0.90;;;31.00;96.40;;;;;;5030750;28;20060;-81
2022/07/14 12:38:41;;;;;;;1.77;1.00;;;31.10;97.20;;;;;;5026307;28;23066;-78
2022/07/14 12:41:09;;;;;;;5.95;0.77;;;31.20;96.90;;;;;;5036829;28;20496;-78
2022/07/14 12:43:43;;;;;;;4.10;0.90;;;31.30;96.80;;;;;;5036729;28;20041;-80
2022/07/14 12:46:16;;;;;;;2.05;0.82;;;31.30;95.20;;;;;;5030943;28;20050;-80
2022/07/14 12:48:50;;;;;;;4.20;1.02;;;31.40;94.80;;;;;;5035078;28;20391;-81
2022/07/14 12:51:38;;;;;;;3.20;0.70;;;31.40;98.60;;;;;;5035850;28;20045;-82
2022/07/14 12:54:16;;;;;;;3.97;0.85;;;31.40;97.30;;;;;;5029834;28;20054;-79
2022/07/14 12:57:00;;;;;;;5.65;1.00;;;31.40;95.90;;;;;;5032912;28;20054;-80
2022/07/14 12:59:38;;;;;;;3.05;0.75;;;31.40;96.90;;;;;;5032400;28;20038;-80
2022/07/14 13:02:07;;;;;;;2.50;0.73;;;31.40;94.80;;;;;;5034407;28;20046;-83
2022/07/14 13:04:34;;;;;;;1.50;0.80;;;31.40;96.00;;;;;;5048334;28;20096;-81
2022/07/14 13:07:21;;;;;;;4.57;0.90;;;31.40;94.10;;;;;;5036737;28;20046;-80
2022/07/14 13:10:13;;;;;;;0.80;0.60;;;31.40;94.10;;;;;;5038439;28;20026;-82
2022/07/14 13:12:43;;;;;;;0.68;0.68;;;31.40;94.40;;;;;;5039344;28;20136;-82